Time;durP1;ratioP1;P1;durP2;ratioP2;P2;SDS_P1;SDS_P2;PMS_P1;PMS_P2;Temp;Humidity;BMP_temperature;BMP_pressure;BME280_temperature;BME280_humidity;BME280_pressure;Samples;Min_cycle;Max_cycle;Signal;HPM_P1;HPM_P2
2021/09/21 00:02:40;;;;;;;30.63;21.23;;;11.30;99.90;;;;;;6223816;23;20036;-89
2021/09/21 00:05:28;;;;;;;30.17;19.83;;;11.30;99.90;;;;;;6244741;23;20103;-89
2021/09/21 00:08:16;;;;;;;28.77;21.15;;;11.30;99.90;;;;;;6225311;23;20056;-89
2021/09/21 00:11:05;;;;;;;27.30;20.20;;;11.30;99.90;;;;;;6222632;23;20134;-91
2021/09/21 00:13:53;;;;;;;27.92;19.95;;;11.30;99.90;;;;;;6246161;23;20105;-89
2021/09/21 00:16:40;;;;;;;27.33;19.83;;;11.30;99.90;;;;;;6203612;23;20059;-90
2021/09/21 00:19:31;;;;;;;29.60;20.17;;;11.30;99.90;;;;;;6247910;22;20052;-89
2021/09/21 00:22:19;;;;;;;29.47;20.43;;;11.30;99.90;;;;;;6222941;23;20078;-90
2021/09/21 00:25:08;;;;;;;29.08;19.65;;;11.30;99.90;;;;;;6246270;23;20654;-89
2021/09/21 00:27:55;;;;;;;28.23;18.65;;;11.30;99.90;;;;;;6227497;23;20056;-90
2021/09/21 00:30:50;;;;;;;26.30;18.63;;;11.30;99.90;;;;;;6250969;23;20071;-91
2021/09/21 00:33:50;;;;;;;27.20;19.40;;;11.30;99.90;;;;;;6240421;23;20028;-88
2021/09/21 00:36:41;;;;;;;29.33;20.70;;;11.30;99.90;;;;;;6256248;22;20024;-91
2021/09/21 00:39:28;;;;;;;26.38;19.58;;;11.30;99.90;;;;;;6245776;23;20027;-89
2021/09/21 00:42:23;;;;;;;24.77;18.13;;;11.30;99.90;;;;;;6203844;23;20054;-90
2021/09/21 00:45:21;;;;;;;23.92;19.33;;;11.30;99.90;;;;;;6244345;23;20051;-89
2021/09/21 00:48:10;;;;;;;23.63;17.67;;;11.20;99.90;;;;;;6222930;23;20024;-89
2021/09/21 00:50:57;;;;;;;23.55;16.85;;;11.20;99.90;;;;;;6222590;23;20024;-90
2021/09/21 00:53:45;;;;;;;23.77;18.00;;;11.30;99.90;;;;;;6223215;23;20066;-90
2021/09/21 00:56:32;;;;;;;23.90;17.73;;;11.30;99.90;;;;;;6221738;22;20060;-90
2021/09/21 00:59:19;;;;;;;25.00;18.45;;;11.30;99.90;;;;;;6247099;22;20102;-89
2021/09/21 01:02:06;;;;;;;27.90;18.08;;;11.30;99.90;;;;;;6202553;23;20032;-90
2021/09/21 01:04:54;;;;;;;27.35;17.83;;;11.30;99.90;;;;;;6224117;23;20304;-89
2021/09/21 01:07:45;;;;;;;23.30;16.63;;;11.30;99.90;;;;;;6222717;23;20415;-90
2021/09/21 01:10:35;;;;;;;24.67;17.10;;;11.30;99.90;;;;;;6245202;23;20158;-90
2021/09/21 01:13:25;;;;;;;22.30;17.25;;;11.30;99.90;;;;;;6244617;23;20028;-88
2021/09/21 01:16:12;;;;;;;23.75;17.05;;;11.20;99.90;;;;;;6201732;23;20082;-89
2021/09/21 01:19:00;;;;;;;24.83;16.50;;;11.20;99.90;;;;;;6222112;23;20024;-90
2021/09/21 01:21:48;;;;;;;26.20;17.08;;;11.20;99.90;;;;;;6244989;23;20103;-88
2021/09/21 01:24:38;;;;;;;20.77;16.67;;;11.20;99.90;;;;;;6241856;23;20637;-89
2021/09/21 01:27:25;;;;;;;21.63;16.38;;;11.20;99.90;;;;;;6244161;23;20316;-88
2021/09/21 01:30:13;;;;;;;23.15;15.70;;;11.20;99.90;;;;;;6223549;23;20032;-87
2021/09/21 01:33:02;;;;;;;22.63;15.73;;;11.20;99.90;;;;;;6224447;23;20067;-86
2021/09/21 01:35:49;;;;;;;19.23;16.52;;;11.20;99.90;;;;;;6200100;23;20059;-91
2021/09/21 01:38:36;;;;;;;25.00;16.25;;;11.20;99.90;;;;;;6223681;23;20027;-90
2021/09/21 01:41:23;;;;;;;20.83;15.93;;;11.20;99.90;;;;;;6201460;23;20031;-90
2021/09/21 01:44:11;;;;;;;20.23;14.55;;;11.20;99.90;;;;;;6223803;23;20121;-86
2021/09/21 01:47:02;;;;;;;21.48;15.27;;;11.20;99.90;;;;;;6245084;23;20102;-87
2021/09/21 01:53:23;;;;;;;18.60;15.07;;;11.10;99.90;;;;;;6159090;23;20038;-88
2021/09/21 01:59:16;;;;;;;20.42;15.63;;;11.10;99.90;;;;;;6229340;23;20048;-89
2021/09/21 02:02:05;;;;;;;22.25;16.75;;;11.10;99.90;;;;;;6222653;23;20047;-89
2021/09/21 02:04:53;;;;;;;19.77;15.73;;;11.10;99.90;;;;;;6245217;23;20031;-89
2021/09/21 02:07:40;;;;;;;20.55;15.85;;;11.00;99.90;;;;;;6246844;23;20048;-88
2021/09/21 02:10:29;;;;;;;19.52;15.48;;;11.00;99.90;;;;;;6245293;23;20055;-88
2021/09/21 02:13:16;;;;;;;21.85;15.95;;;11.00;99.90;;;;;;6246300;22;20063;-90
2021/09/21 02:16:05;;;;;;;23.00;15.85;;;11.00;99.90;;;;;;6242074;23;20032;-88
2021/09/21 02:18:53;;;;;;;25.42;16.20;;;11.00;99.90;;;;;;6243838;23;20021;-89
2021/09/21 02:21:41;;;;;;;22.60;17.73;;;11.00;99.90;;;;;;6244276;23;20024;-89
2021/09/21 02:24:28;;;;;;;20.80;15.98;;;11.00;99.90;;;;;;6243216;23;20109;-90
2021/09/21 02:27:18;;;;;;;21.70;17.02;;;11.10;99.90;;;;;;6242493;23;20066;-89
2021/09/21 02:30:05;;;;;;;24.60;17.20;;;11.10;99.90;;;;;;6222708;23;20028;-89
2021/09/21 02:32:52;;;;;;;24.40;17.50;;;11.10;99.90;;;;;;6246606;23;20051;-92
2021/09/21 02:35:42;;;;;;;22.85;17.40;;;11.10;99.90;;;;;;6246688;23;20427;-88
2021/09/21 02:38:30;;;;;;;22.23;17.50;;;11.10;99.90;;;;;;6251292;23;20024;-91
2021/09/21 02:41:17;;;;;;;24.85;16.48;;;11.10;99.90;;;;;;6228698;23;20343;-88
2021/09/21 02:44:04;;;;;;;24.20;17.77;;;11.10;99.90;;;;;;6249613;23;20024;-89
2021/09/21 02:46:52;;;;;;;24.65;18.08;;;11.00;99.90;;;;;;6242311;23;20028;-88
2021/09/21 02:49:39;;;;;;;22.40;17.70;;;11.00;99.90;;;;;;6222885;23;20327;-89
2021/09/21 02:52:27;;;;;;;25.38;18.00;;;11.10;99.90;;;;;;6244584;23;20036;-89
2021/09/21 02:55:14;;;;;;;24.05;18.02;;;11.00;99.90;;;;;;6222385;23;20024;-90
2021/09/21 02:58:01;;;;;;;25.27;17.52;;;11.00;99.90;;;;;;6246373;22;20057;-88
2021/09/21 03:00:52;;;;;;;29.00;18.25;;;11.00;99.90;;;;;;6274380;22;20059;-89
2021/09/21 03:03:50;;;;;;;23.67;18.45;;;11.00;99.90;;;;;;6273260;22;20051;-89
2021/09/21 03:06:43;;;;;;;25.98;19.15;;;11.00;99.90;;;;;;6276217;22;20073;-91
2021/09/21 03:12:59;;;;;;;24.63;17.67;;;11.00;99.90;;;;;;6275802;22;20489;-91
2021/09/21 03:18:32;;;;;;;25.05;17.73;;;11.10;99.90;;;;;;6275337;22;20035;-90
2021/09/21 03:21:20;;;;;;;22.13;17.77;;;11.00;99.90;;;;;;6272867;22;20058;-90
2021/09/21 03:24:07;;;;;;;23.63;17.90;;;11.00;99.90;;;;;;6274727;22;20457;-91
2021/09/21 03:26:58;;;;;;;24.35;17.85;;;11.00;99.90;;;;;;6274746;22;20221;-90
2021/09/21 03:29:45;;;;;;;25.20;18.75;;;10.90;99.90;;;;;;6273641;22;20028;-91
2021/09/21 03:32:32;;;;;;;22.35;17.63;;;10.90;99.90;;;;;;6276818;22;20027;-89
2021/09/21 03:35:20;;;;;;;24.63;17.85;;;10.90;99.90;;;;;;6276009;22;20091;-90
2021/09/21 03:38:07;;;;;;;23.85;17.25;;;10.90;99.90;;;;;;6277357;22;20482;-89
2021/09/21 03:40:56;;;;;;;26.75;17.85;;;10.90;99.90;;;;;;6274146;22;20102;-90
2021/09/21 03:43:44;;;;;;;24.20;18.65;;;10.90;99.90;;;;;;6275787;22;20069;-90
2021/09/21 03:46:31;;;;;;;22.88;17.77;;;10.90;99.90;;;;;;6274229;22;20398;-89
2021/09/21 03:49:19;;;;;;;21.75;17.17;;;10.90;99.90;;;;;;6274366;22;20206;-91
2021/09/21 03:52:09;;;;;;;24.60;17.92;;;11.00;99.90;;;;;;6274500;22;20023;-89
2021/09/21 03:54:56;;;;;;;24.55;18.40;;;10.90;99.90;;;;;;6276221;22;20117;-91
2021/09/21 03:57:46;;;;;;;25.63;18.38;;;10.90;99.90;;;;;;6273324;22;20085;-90
2021/09/21 04:00:34;;;;;;;26.38;17.77;;;11.00;99.90;;;;;;6275717;22;20066;-90
2021/09/21 04:03:47;;;;;;;26.63;18.38;;;11.00;99.90;;;;;;6275345;22;20024;-90
2021/09/21 04:06:50;;;;;;;24.40;17.75;;;11.00;99.90;;;;;;6275372;22;20020;-91
2021/09/21 04:09:40;;;;;;;24.05;17.85;;;11.00;99.90;;;;;;6274886;22;20077;-88
2021/09/21 04:12:28;;;;;;;23.42;18.05;;;11.00;99.90;;;;;;6277190;22;20087;-90
2021/09/21 04:15:15;;;;;;;23.95;18.45;;;11.00;99.90;;;;;;6278636;22;20092;-90
2021/09/21 04:18:04;;;;;;;21.77;17.52;;;11.00;99.90;;;;;;6291826;22;20828;-89
2021/09/21 04:20:57;;;;;;;22.55;16.88;;;11.00;99.90;;;;;;6293156;22;20061;-91
2021/09/21 04:23:44;;;;;;;;;;;11.00;99.90;;;;;;6292848;22;20533;-90
2021/09/21 04:26:31;;;;;;;22.85;16.80;;;11.00;99.90;;;;;;6280476;22;20230;-91
2021/09/21 04:29:21;;;;;;;23.77;17.75;;;11.00;99.90;;;;;;6276192;22;20077;-90
2021/09/21 04:32:14;;;;;;;24.67;17.52;;;11.00;99.90;;;;;;6278021;22;20078;-90
2021/09/21 04:35:04;;;;;;;23.95;17.45;;;11.00;99.90;;;;;;6279961;22;20054;-90
2021/09/21 04:37:51;;;;;;;20.55;15.63;;;11.00;99.90;;;;;;6281018;22;20074;-91
2021/09/21 04:40:41;;;;;;;23.25;16.63;;;10.90;99.90;;;;;;6284214;22;20088;-90
2021/09/21 04:43:29;;;;;;;26.83;17.55;;;10.90;99.90;;;;;;6279500;22;20379;-90
2021/09/21 04:46:17;;;;;;;23.45;18.13;;;10.90;99.90;;;;;;6280860;22;20023;-92
2021/09/21 04:49:04;;;;;;;24.55;17.42;;;10.90;99.90;;;;;;6279415;22;20023;-94
2021/09/21 04:51:51;;;;;;;21.73;17.02;;;10.80;99.90;;;;;;6278810;22;20098;-91
2021/09/21 04:54:41;;;;;;;22.92;17.13;;;10.80;99.90;;;;;;6278787;22;20101;-92
2021/09/21 04:57:28;;;;;;;21.50;17.33;;;10.80;99.90;;;;;;6274194;22;20089;-90
2021/09/21 05:00:18;;;;;;;24.23;17.70;;;10.80;99.90;;;;;;6256103;22;20050;-90
2021/09/21 05:03:10;;;;;;;23.10;17.17;;;10.70;99.90;;;;;;6279089;22;20078;-91
2021/09/21 05:05:59;;;;;;;25.95;16.83;;;10.70;99.90;;;;;;6282354;22;20019;-91
2021/09/21 05:08:46;;;;;;;21.83;17.35;;;10.70;99.90;;;;;;6258539;22;20019;-92
2021/09/21 05:11:34;;;;;;;22.25;17.23;;;10.70;99.90;;;;;;6255106;22;20036;-93
2021/09/21 05:14:24;;;;;;;23.73;17.33;;;10.60;99.90;;;;;;6275686;22;20037;-93
2021/09/21 05:17:12;;;;;;;24.10;17.80;;;10.70;99.90;;;;;;6276928;22;20422;-90
2021/09/21 05:20:03;;;;;;;24.60;18.00;;;10.60;99.90;;;;;;6277685;22;20031;-93
2021/09/21 05:22:54;;;;;;;23.13;18.08;;;10.60;99.90;;;;;;6277296;22;20023;-90
2021/09/21 05:25:42;;;;;;;23.98;17.88;;;10.70;99.90;;;;;;6255011;22;20027;-91
2021/09/21 05:28:29;;;;;;;26.80;18.27;;;10.60;99.90;;;;;;6275474;22;20051;-92
2021/09/21 05:31:17;;;;;;;23.00;17.50;;;10.70;99.90;;;;;;6254621;22;20032;-92
2021/09/21 05:34:04;;;;;;;25.55;18.25;;;10.70;99.90;;;;;;6276536;22;20032;-92
2021/09/21 05:36:52;;;;;;;23.00;18.02;;;10.70;99.90;;;;;;6278041;22;20095;-91
2021/09/21 05:39:40;;;;;;;23.67;17.80;;;10.70;99.90;;;;;;6274633;22;20020;-90
2021/09/21 05:42:27;;;;;;;24.90;17.50;;;10.70;99.90;;;;;;6272946;22;20024;-91
2021/09/21 05:45:17;;;;;;;25.20;17.38;;;10.70;99.90;;;;;;6273222;22;20085;-89
2021/09/21 05:48:07;;;;;;;23.50;18.60;;;10.70;99.90;;;;;;6253883;22;20093;-90
2021/09/21 05:50:54;;;;;;;22.25;17.08;;;10.80;99.90;;;;;;6277629;22;20330;-91
2021/09/21 05:53:42;;;;;;;22.63;16.88;;;10.80;99.90;;;;;;6280397;22;20028;-91
2021/09/21 05:56:29;;;;;;;19.65;16.08;;;10.80;99.90;;;;;;6268588;22;20121;-89
2021/09/21 05:59:19;;;;;;;19.27;15.55;;;10.90;99.90;;;;;;6244795;22;20097;-90
2021/09/21 06:02:09;;;;;;;23.30;15.85;;;10.90;99.90;;;;;;6223157;23;20056;-89
2021/09/21 06:04:58;;;;;;;20.90;16.13;;;10.90;99.90;;;;;;6245298;23;20024;-90
2021/09/21 06:07:47;;;;;;;19.40;15.80;;;11.00;99.90;;;;;;6200468;23;20035;-88
2021/09/21 06:10:35;;;;;;;23.52;17.05;;;11.00;99.90;;;;;;6242970;23;20035;-89
2021/09/21 06:13:23;;;;;;;20.75;16.33;;;11.00;99.90;;;;;;6202173;23;20089;-89
2021/09/21 06:16:10;;;;;;;21.52;16.35;;;11.00;99.90;;;;;;6225169;23;20082;-89
2021/09/21 06:18:57;;;;;;;21.25;16.13;;;11.00;99.90;;;;;;6246571;23;20023;-89
2021/09/21 06:21:46;;;;;;;19.05;15.55;;;11.00;99.90;;;;;;6243525;23;20183;-89
2021/09/21 06:24:33;;;;;;;26.00;15.70;;;11.10;99.90;;;;;;6246918;23;20431;-88
2021/09/21 06:27:22;;;;;;;22.80;14.98;;;11.10;99.90;;;;;;6222161;23;20443;-91
2021/09/21 06:30:12;;;;;;;21.77;16.67;;;11.20;99.90;;;;;;6244391;23;20032;-88
2021/09/21 06:32:59;;;;;;;21.17;15.30;;;11.20;99.90;;;;;;6224830;23;20024;-86
2021/09/21 06:35:47;;;;;;;20.38;14.63;;;11.40;99.90;;;;;;6245075;23;20024;-86
2021/09/21 06:38:37;;;;;;;21.50;15.65;;;11.50;99.90;;;;;;6222632;23;20071;-85
2021/09/21 06:41:24;;;;;;;17.67;13.95;;;11.70;99.90;;;;;;6223615;23;20028;-85
2021/09/21 06:44:12;;;;;;;18.70;13.93;;;11.70;99.90;;;;;;6242256;23;20059;-90
2021/09/21 06:47:00;;;;;;;19.73;14.30;;;12.00;99.90;;;;;;6244671;23;20095;-89
2021/09/21 06:49:48;;;;;;;16.08;12.35;;;12.10;99.90;;;;;;6245234;23;20030;-90
2021/09/21 06:52:43;;;;;;;16.13;11.80;;;12.40;99.90;;;;;;6201461;23;20071;-87
2021/09/21 06:55:30;;;;;;;12.60;11.10;;;12.90;99.90;;;;;;6222805;23;20024;-88
2021/09/21 06:58:18;;;;;;;12.85;11.40;;;13.30;99.90;;;;;;6243900;23;20097;-89
2021/09/21 07:01:08;;;;;;;13.90;10.65;;;13.60;99.90;;;;;;6243166;23;20048;-85
2021/09/21 07:03:58;;;;;;;11.75;10.30;;;13.70;99.90;;;;;;6246810;22;20020;-86
2021/09/21 07:06:45;;;;;;;11.23;10.10;;;14.00;99.90;;;;;;6223854;23;20020;-87
2021/09/21 07:09:37;;;;;;;13.50;9.75;;;14.20;99.90;;;;;;6242633;23;20024;-87
2021/09/21 07:12:24;;;;;;;11.37;9.20;;;14.30;99.90;;;;;;6221995;22;20036;-88
2021/09/21 07:15:21;;;;;;;14.65;9.90;;;14.10;99.90;;;;;;6182025;23;20111;-89
2021/09/21 07:18:09;;;;;;;12.75;9.10;;;14.20;99.90;;;;;;6242078;23;20408;-87
2021/09/21 07:20:56;;;;;;;11.93;10.30;;;14.20;99.90;;;;;;6244018;23;20039;-88
2021/09/21 07:23:45;;;;;;;12.48;9.77;;;14.00;99.90;;;;;;6244868;23;20481;-88
2021/09/21 07:26:35;;;;;;;12.75;10.23;;;13.90;99.90;;;;;;6244701;23;20086;-86
2021/09/21 07:29:24;;;;;;;12.80;9.75;;;13.90;99.90;;;;;;6246661;23;20364;-88
2021/09/21 07:32:11;;;;;;;12.13;8.90;;;13.90;99.90;;;;;;6246708;23;20024;-87
2021/09/21 07:34:59;;;;;;;12.63;8.38;;;14.20;99.90;;;;;;6245492;23;20529;-87
2021/09/21 07:37:46;;;;;;;15.45;9.73;;;14.30;99.90;;;;;;6223303;23;20067;-91
2021/09/21 07:40:35;;;;;;;11.80;9.18;;;14.40;99.90;;;;;;6224127;23;20039;-88
2021/09/21 07:43:22;;;;;;;12.45;9.32;;;14.20;99.90;;;;;;6245820;23;20108;-87
2021/09/21 07:46:10;;;;;;;13.05;8.90;;;14.20;99.90;;;;;;6245884;22;20099;-87
2021/09/21 07:48:57;;;;;;;12.23;9.55;;;14.30;99.90;;;;;;6244441;23;20023;-88
2021/09/21 07:51:47;;;;;;;10.15;9.05;;;14.30;99.90;;;;;;6222096;23;20482;-88
2021/09/21 07:54:37;;;;;;;10.90;8.80;;;14.30;99.90;;;;;;6243257;23;20132;-88
2021/09/21 07:57:25;;;;;;;10.25;9.15;;;14.50;99.90;;;;;;6244138;22;20685;-89
2021/09/21 08:00:14;;;;;;;13.45;10.10;;;14.50;99.90;;;;;;6244710;23;20066;-88
2021/09/21 08:03:01;;;;;;;11.00;9.27;;;14.30;99.90;;;;;;6243394;23;20162;-89
2021/09/21 08:05:50;;;;;;;12.82;9.20;;;14.10;99.90;;;;;;6243596;23;20028;-88
2021/09/21 08:08:39;;;;;;;14.27;9.68;;;14.20;99.90;;;;;;6224429;23;20043;-87
2021/09/21 08:11:27;;;;;;;12.00;9.38;;;14.10;99.90;;;;;;6242341;23;20443;-89
2021/09/21 08:14:14;;;;;;;22.42;9.48;;;14.10;99.90;;;;;;6244829;23;20038;-87
2021/09/21 08:17:03;;;;;;;16.00;9.32;;;14.20;99.90;;;;;;6242076;23;20546;-87
2021/09/21 08:19:52;;;;;;;10.57;9.27;;;14.30;99.90;;;;;;6243108;23;20028;-86
2021/09/21 08:22:41;;;;;;;11.88;8.75;;;14.40;99.90;;;;;;6242246;23;20035;-89
2021/09/21 08:25:29;;;;;;;16.00;9.57;;;14.70;99.90;;;;;;6202711;23;20035;-90
2021/09/21 08:28:16;;;;;;;9.55;8.40;;;15.00;99.90;;;;;;6243765;23;20111;-92
2021/09/21 08:31:03;;;;;;;12.02;7.57;;;15.70;99.90;;;;;;6203130;23;20138;-93
2021/09/21 08:33:51;;;;;;;10.82;8.23;;;16.10;99.90;;;;;;6222454;23;20039;-92
2021/09/21 08:36:42;;;;;;;8.90;7.82;;;16.00;99.90;;;;;;6246075;23;20032;-93
2021/09/21 08:39:30;;;;;;;9.95;7.68;;;16.10;99.90;;;;;;6247528;23;20039;-91
2021/09/21 08:42:18;;;;;;;7.85;6.95;;;16.80;99.90;;;;;;6246619;23;20024;-89
2021/09/21 08:45:09;;;;;;;9.98;7.05;;;17.70;99.10;;;;;;6243871;23;20028;-88
2021/09/21 08:47:57;;;;;;;9.48;6.95;;;18.60;93.20;;;;;;6245587;23;20027;-91
2021/09/21 08:50:47;;;;;;;9.60;6.45;;;19.40;90.00;;;;;;6225458;23;20032;-82
2021/09/21 08:53:37;;;;;;;9.63;6.72;;;19.50;85.30;;;;;;6241309;23;20028;-84
2021/09/21 08:56:26;;;;;;;9.63;6.75;;;19.40;82.50;;;;;;6241880;22;20430;-86
2021/09/21 08:59:15;;;;;;;8.52;6.53;;;19.20;79.20;;;;;;6247477;23;20027;-85
2021/09/21 09:02:10;;;;;;;8.75;6.72;;;19.50;76.10;;;;;;6246882;23;20020;-86
2021/09/21 09:05:02;;;;;;;7.68;5.38;;;19.30;77.20;;;;;;6230871;23;20031;-87
2021/09/21 09:07:54;;;;;;;8.27;6.60;;;20.00;71.20;;;;;;6249925;23;20028;-87
2021/09/21 09:10:41;;;;;;;8.00;6.53;;;19.90;68.70;;;;;;6229223;23;20436;-85
2021/09/21 09:13:32;;;;;;;6.80;6.13;;;19.60;70.10;;;;;;6230004;23;20036;-86
2021/09/21 09:16:20;;;;;;;8.48;7.50;;;19.80;69.30;;;;;;6249869;23;20024;-86
2021/09/21 09:19:10;;;;;;;7.70;6.93;;;19.90;67.20;;;;;;6235642;22;20028;-86
2021/09/21 09:22:08;;;;;;;7.38;6.40;;;20.10;68.00;;;;;;6257034;23;20020;-85
2021/09/21 09:25:00;;;;;;;8.48;5.88;;;20.50;68.10;;;;;;6234110;23;20024;-87
2021/09/21 09:27:48;;;;;;;8.13;5.85;;;20.80;66.20;;;;;;6250467;23;20024;-86
2021/09/21 09:30:35;;;;;;;9.63;6.18;;;21.10;64.40;;;;;;6227445;23;20032;-87
2021/09/21 09:33:22;;;;;;;8.02;5.95;;;21.20;62.60;;;;;;6246761;23;20121;-85
2021/09/21 09:36:10;;;;;;;7.95;6.30;;;20.70;63.20;;;;;;6248199;23;20032;-85
2021/09/21 09:39:01;;;;;;;6.80;5.75;;;20.60;65.70;;;;;;6251966;23;20028;-85
2021/09/21 09:41:53;;;;;;;10.88;6.35;;;20.60;63.50;;;;;;6246525;23;20083;-84
2021/09/21 09:44:43;;;;;;;9.32;6.28;;;21.10;64.40;;;;;;6250860;23;20028;-85
2021/09/21 09:47:42;;;;;;;8.43;6.35;;;21.20;61.50;;;;;;6247165;23;20385;-86
2021/09/21 09:50:32;;;;;;;5.93;5.35;;;21.20;61.70;;;;;;6250281;23;20028;-87
2021/09/21 09:53:25;;;;;;;7.13;6.30;;;21.20;62.20;;;;;;6254211;23;20047;-86
2021/09/21 09:56:12;;;;;;;7.05;6.18;;;20.30;62.70;;;;;;6255600;22;20020;-87
2021/09/21 09:59:00;;;;;;;8.07;6.47;;;19.60;64.80;;;;;;6248280;23;20028;-87
2021/09/21 10:01:47;;;;;;;8.50;6.30;;;19.50;67.00;;;;;;6254189;22;20028;-86
2021/09/21 10:04:38;;;;;;;6.90;6.20;;;19.60;67.10;;;;;;6253577;23;20020;-87
2021/09/21 10:07:25;;;;;;;7.97;6.55;;;20.40;66.60;;;;;;6233799;23;20107;-88
2021/09/21 10:10:17;;;;;;;7.93;6.00;;;21.10;62.90;;;;;;6239538;23;20407;-86
2021/09/21 10:13:09;;;;;;;5.28;4.72;;;22.00;64.40;;;;;;6259092;23;20024;-90
2021/09/21 10:15:56;;;;;;;7.90;5.43;;;23.30;56.50;;;;;;6234438;23;20024;-88
2021/09/21 10:18:44;;;;;;;5.35;4.82;;;23.70;56.00;;;;;;6234582;23;20019;-88
2021/09/21 10:21:37;;;;;;;6.25;5.63;;;24.50;53.80;;;;;;6235379;23;20020;-88
2021/09/21 10:24:31;;;;;;;8.00;5.85;;;24.10;52.70;;;;;;6254998;23;20078;-87
2021/09/21 10:27:21;;;;;;;8.57;6.53;;;23.60;55.10;;;;;;6260560;22;20024;-88
2021/09/21 10:30:12;;;;;;;7.30;5.68;;;23.60;52.60;;;;;;6264954;23;20028;-91
2021/09/21 10:33:00;;;;;;;6.90;6.20;;;23.90;53.60;;;;;;6259898;23;20423;-89
2021/09/21 10:35:50;;;;;;;8.55;6.90;;;23.80;51.80;;;;;;6257009;23;20493;-87
2021/09/21 10:38:50;;;;;;;7.30;6.10;;;23.50;52.30;;;;;;6236818;23;20024;-90
2021/09/21 10:41:59;;;;;;;6.82;6.15;;;23.40;52.90;;;;;;6254948;23;20020;-88
2021/09/21 10:44:55;;;;;;;8.88;5.45;;;23.70;50.60;;;;;;6255555;23;20354;-89
2021/09/21 10:47:42;;;;;;;13.82;6.07;;;23.90;52.60;;;;;;6236097;23;20056;-88
2021/09/21 10:50:35;;;;;;;5.47;4.93;;;23.80;48.90;;;;;;6212712;23;20347;-87
2021/09/21 10:53:24;;;;;;;6.45;5.45;;;23.30;54.10;;;;;;6253118;23;20055;-89
2021/09/21 10:56:14;;;;;;;6.32;5.72;;;23.10;53.60;;;;;;6233371;22;20036;-86
2021/09/21 10:59:02;;;;;;;7.47;5.75;;;22.50;55.10;;;;;;6232109;23;20054;-89
2021/09/21 11:01:49;;;;;;;7.60;6.25;;;22.30;54.40;;;;;;6235096;23;20019;-87
2021/09/21 11:04:44;;;;;;;8.30;6.35;;;21.60;56.10;;;;;;6257095;23;20032;-88
2021/09/21 11:07:36;;;;;;;6.45;5.95;;;21.20;57.20;;;;;;6257351;23;20086;-93
2021/09/21 11:10:34;;;;;;;6.53;5.65;;;21.60;58.40;;;;;;6236950;23;20123;-92
2021/09/21 11:13:25;;;;;;;7.05;6.35;;;21.60;57.60;;;;;;6260457;23;20188;-89
2021/09/21 11:16:13;;;;;;;6.68;5.97;;;21.50;57.10;;;;;;6259999;23;20531;-89
2021/09/21 11:19:20;;;;;;;;;;;;;;;;;;;;;
2021/09/21 11:22:26;;;;;;;7.88;6.40;;;21.30;58.30;;;;;;6248997;23;20091;-89
2021/09/21 11:25:14;;;;;;;;;;;21.10;58.70;;;;;;6250135;23;20094;-88
2021/09/21 11:28:02;;;;;;;7.50;6.05;;;20.90;58.50;;;;;;6251201;22;19937;-88
2021/09/21 11:31:02;;;;;;;6.37;5.77;;;20.70;59.50;;;;;;6240746;22;20043;-92
2021/09/21 11:33:54;;;;;;;7.90;7.03;;;20.20;61.70;;;;;;6228715;23;20311;-90
2021/09/21 11:36:46;;;;;;;8.10;7.30;;;19.50;62.70;;;;;;6212228;23;20024;-88
2021/09/21 11:39:33;;;;;;;9.73;7.10;;;19.10;65.10;;;;;;6226721;23;20059;-88
2021/09/21 11:42:29;;;;;;;8.93;6.60;;;18.60;66.10;;;;;;6227265;23;20024;-88
2021/09/21 11:45:20;;;;;;;8.75;6.97;;;18.50;68.30;;;;;;6245800;23;20442;-88
2021/09/21 11:48:15;;;;;;;7.90;6.50;;;18.20;67.60;;;;;;6226239;23;20058;-90
2021/09/21 11:51:02;;;;;;;8.57;6.97;;;17.80;70.20;;;;;;6223603;23;20035;-89
2021/09/21 11:53:55;;;;;;;7.78;6.82;;;17.50;72.20;;;;;;6223869;23;20415;-89
2021/09/21 11:56:42;;;;;;;13.35;6.72;;;17.40;72.00;;;;;;6247471;22;20086;-89
2021/09/21 11:59:31;;;;;;;7.10;6.15;;;17.80;73.40;;;;;;6247557;23;20024;-87
2021/09/21 12:02:19;;;;;;;7.00;6.32;;;18.30;72.70;;;;;;6226908;23;20277;-89
2021/09/21 12:05:13;;;;;;;9.80;6.47;;;18.60;69.40;;;;;;6231186;23;20394;-90
2021/09/21 12:08:05;;;;;;;8.27;7.18;;;18.90;69.00;;;;;;6226479;23;20078;-88
2021/09/21 12:10:55;;;;;;;7.47;6.68;;;18.90;67.00;;;;;;6256060;23;20053;-90
2021/09/21 12:13:48;;;;;;;9.30;7.05;;;18.70;66.50;;;;;;6257880;23;20027;-90
2021/09/21 12:16:35;;;;;;;8.27;6.80;;;18.50;70.10;;;;;;6230508;23;20024;-89
2021/09/21 12:19:23;;;;;;;10.60;7.07;;;19.00;69.40;;;;;;6228874;23;20023;-90
2021/09/21 12:22:20;;;;;;;8.00;6.25;;;19.30;67.00;;;;;;6225443;23;20035;-88
2021/09/21 12:25:10;;;;;;;6.80;6.13;;;19.70;64.20;;;;;;6224113;23;20020;-88
2021/09/21 12:28:04;;;;;;;8.07;6.32;;;19.90;64.80;;;;;;6254667;23;20050;-89
2021/09/21 12:30:55;;;;;;;9.77;6.65;;;19.80;66.00;;;;;;6254257;23;20086;-90
2021/09/21 12:33:47;;;;;;;8.47;6.23;;;20.50;63.40;;;;;;6227267;23;20510;-90
2021/09/21 12:36:42;;;;;;;9.65;7.32;;;21.30;60.60;;;;;;6246882;23;20039;-89
2021/09/21 12:39:35;;;;;;;8.70;6.38;;;21.50;60.00;;;;;;6246681;23;20118;-88
2021/09/21 12:42:22;;;;;;;6.70;5.88;;;21.70;59.70;;;;;;6248564;23;20035;-87
2021/09/21 12:45:11;;;;;;;8.45;5.82;;;21.80;61.10;;;;;;6245586;23;20092;-90
2021/09/21 12:48:00;;;;;;;7.75;6.20;;;22.90;58.40;;;;;;6243875;23;20411;-87
2021/09/21 12:50:53;;;;;;;8.48;6.47;;;22.80;55.80;;;;;;6246435;23;20315;-88
2021/09/21 12:53:40;;;;;;;9.90;6.28;;;23.00;55.60;;;;;;6249774;23;20031;-89
2021/09/21 12:56:31;;;;;;;9.57;6.80;;;23.10;58.20;;;;;;6229060;22;20024;-90
2021/09/21 12:59:24;;;;;;;7.10;5.97;;;23.60;57.30;;;;;;6234129;23;20024;-90
2021/09/21 13:02:11;;;;;;;6.18;5.32;;;24.60;52.20;;;;;;6247025;23;20090;-91
2021/09/21 13:05:13;;;;;;;7.63;5.78;;;24.60;50.10;;;;;;6226296;23;20312;-92
2021/09/21 13:08:03;;;;;;;7.35;6.05;;;23.60;52.70;;;;;;6244217;23;20115;-89
2021/09/21 13:10:50;;;;;;;8.43;6.97;;;22.20;55.80;;;;;;6243462;23;20034;-89
2021/09/21 13:13:57;;;;;;;8.57;7.05;;;21.00;58.50;;;;;;6244549;23;20024;-88
2021/09/21 13:18:08;;;;;;;7.68;6.80;;;20.20;61.70;;;;;;6150143;23;20085;-90
2021/09/21 13:20:55;;;;;;;7.07;6.20;;;19.30;65.60;;;;;;6166671;23;20063;-88
2021/09/21 13:23:42;;;;;;;8.02;6.57;;;18.70;72.30;;;;;;6223647;23;20020;-91
2021/09/21 13:26:30;;;;;;;8.32;7.53;;;18.60;70.70;;;;;;6242091;23;20046;-89
2021/09/21 13:29:17;;;;;;;8.00;7.22;;;18.50;68.50;;;;;;6224161;23;20024;-90
2021/09/21 13:32:05;;;;;;;8.88;7.30;;;18.30;70.00;;;;;;6224039;23;20027;-87
2021/09/21 13:34:52;;;;;;;10.30;7.63;;;18.30;70.20;;;;;;6222657;23;20028;-89
2021/09/21 13:37:39;;;;;;;7.45;6.68;;;18.20;68.30;;;;;;6243757;23;20137;-90
2021/09/21 13:40:40;;;;;;;11.07;6.95;;;18.20;70.10;;;;;;6246631;22;20455;-89
2021/09/21 13:43:28;;;;;;;8.43;7.57;;;18.10;71.80;;;;;;6245159;23;20031;-88
2021/09/21 13:46:17;;;;;;;8.60;6.88;;;17.70;72.00;;;;;;6242890;23;20331;-91
2021/09/21 13:49:10;;;;;;;9.82;7.82;;;17.40;73.90;;;;;;6250299;23;20020;-89
2021/09/21 13:51:57;;;;;;;8.38;7.40;;;17.30;74.60;;;;;;6250243;23;20060;-90
2021/09/21 13:54:45;;;;;;;7.43;6.53;;;17.20;75.00;;;;;;6247634;22;20378;-89
2021/09/21 13:57:32;;;;;;;9.95;7.72;;;17.20;74.60;;;;;;6243265;22;20092;-88
2021/09/21 14:00:23;;;;;;;10.25;7.43;;;17.10;75.60;;;;;;6243010;23;20032;-87
2021/09/21 14:03:18;;;;;;;11.50;7.55;;;17.10;76.70;;;;;;6225551;23;20281;-89
2021/09/21 14:06:05;;;;;;;11.57;7.63;;;17.30;75.70;;;;;;6221882;23;20103;-89
2021/09/21 14:08:52;;;;;;;12.82;7.38;;;17.60;75.50;;;;;;6244517;23;20020;-88
2021/09/21 14:11:42;;;;;;;13.00;7.63;;;17.80;73.70;;;;;;6243845;23;20032;-89
2021/09/21 14:14:30;;;;;;;9.38;8.13;;;17.90;73.40;;;;;;6244601;23;20383;-89
2021/09/21 14:17:17;;;;;;;11.10;8.25;;;18.00;73.20;;;;;;6242725;23;20036;-89
2021/09/21 14:20:09;;;;;;;8.60;6.70;;;18.30;73.10;;;;;;6244003;23;20048;-87
2021/09/21 14:23:00;;;;;;;9.25;6.25;;;18.60;70.10;;;;;;6242758;23;20051;-88
2021/09/21 14:25:47;;;;;;;7.88;6.85;;;18.70;70.40;;;;;;6223122;23;20161;-88
2021/09/21 14:28:39;;;;;;;9.82;6.53;;;18.80;70.40;;;;;;6224311;23;20021;-90
2021/09/21 14:31:29;;;;;;;8.52;6.13;;;19.30;69.00;;;;;;6244963;23;20103;-91
2021/09/21 14:34:20;;;;;;;7.57;6.35;;;19.30;72.80;;;;;;6233061;23;20024;-91
2021/09/21 14:37:08;;;;;;;8.75;6.72;;;19.40;67.20;;;;;;6258424;23;20024;-91
2021/09/21 14:39:55;;;;;;;8.18;6.22;;;19.00;67.10;;;;;;6257310;23;20040;-90
2021/09/21 14:42:44;;;;;;;7.90;6.07;;;18.60;69.60;;;;;;6247428;22;20031;-88
2021/09/21 14:45:34;;;;;;;9.50;7.15;;;18.50;72.90;;;;;;6268098;23;20024;-89
2021/09/21 14:48:21;;;;;;;10.40;7.70;;;18.40;73.00;;;;;;6225121;23;20034;-91